sensor_id;sensor_type;location;lat;lon;timestamp;P1;durP1;ratioP1;P2;durP2;ratioP2
65202;SDS011;51788;45.124;38.966;2024-01-15T00:00:10;3.70;;;3.40;;
65202;SDS011;51788;45.124;38.966;2024-01-15T00:02:37;5.35;;;4.85;;
65202;SDS011;51788;45.124;38.966;2024-01-15T00:05:03;7.20;;;4.68;;
65202;SDS011;51788;45.124;38.966;2024-01-15T00:07:29;4.38;;;3.30;;
65202;SDS011;51788;45.124;38.966;2024-01-15T00:09:55;6.45;;;3.55;;
65202;SDS011;51788;45.124;38.966;2024-01-15T00:12:21;4.13;;;3.83;;
65202;SDS011;51788;45.124;38.966;2024-01-15T00:14:47;6.25;;;3.72;;
65202;SDS011;51788;45.124;38.966;2024-01-15T00:17:13;3.80;;;2.78;;
65202;SDS011;51788;45.124;38.966;2024-01-15T00:19:57;3.00;;;2.80;;
65202;SDS011;51788;45.124;38.966;2024-01-15T00:22:25;2.78;;;2.25;;
65202;SDS011;51788;45.124;38.966;2024-01-15T00:24:52;2.53;;;2.33;;
65202;SDS011;51788;45.124;38.966;2024-01-15T00:27:18;1.98;;;1.88;;
65202;SDS011;51788;45.124;38.966;2024-01-15T00:29:44;2.42;;;2.22;;
65202;SDS011;51788;45.124;38.966;2024-01-15T00:32:10;2.42;;;2.33;;
65202;SDS011;51788;45.124;38.966;2024-01-15T00:34:36;1.80;;;1.70;;
65202;SDS011;51788;45.124;38.966;2024-01-15T00:37:02;6.35;;;2.05;;
65202;SDS011;51788;45.124;38.966;2024-01-15T00:39:29;4.53;;;2.55;;
65202;SDS011;51788;45.124;38.966;2024-01-15T00:44:39;6.60;;;2.47;;
65202;SDS011;51788;45.124;38.966;2024-01-15T00:47:05;1.95;;;1.85;;
65202;SDS011;51788;45.124;38.966;2024-01-15T00:49:31;2.40;;;1.70;;
65202;SDS011;51788;45.124;38.966;2024-01-15T00:51:57;2.22;;;2.10;;
65202;SDS011;51788;45.124;38.966;2024-01-15T00:54:42;2.30;;;1.73;;
65202;SDS011;51788;45.124;38.966;2024-01-15T00:57:08;7.18;;;3.03;;
65202;SDS011;51788;45.124;38.966;2024-01-15T00:59:34;1.60;;;1.50;;
65202;SDS011;51788;45.124;38.966;2024-01-15T01:02:00;2.08;;;1.98;;
65202;SDS011;51788;45.124;38.966;2024-01-15T01:04:26;2.00;;;1.90;;
65202;SDS011;51788;45.124;38.966;2024-01-15T01:06:52;1.80;;;1.70;;
65202;SDS011;51788;45.124;38.966;2024-01-15T01:09:18;1.60;;;1.50;;
65202;SDS011;51788;45.124;38.966;2024-01-15T01:14:28;4.93;;;2.33;;
65202;SDS011;51788;45.124;38.966;2024-01-15T01:16:54;2.20;;;2.08;;
65202;SDS011;51788;45.124;38.966;2024-01-15T01:19:39;2.28;;;2.15;;
65202;SDS011;51788;45.124;38.966;2024-01-15T01:24:49;1.65;;;1.55;;
65202;SDS011;51788;45.124;38.966;2024-01-15T01:27:15;1.30;;;1.25;;
65202;SDS011;51788;45.124;38.966;2024-01-15T01:29:41;4.93;;;1.90;;
65202;SDS011;51788;45.124;38.966;2024-01-15T01:32:07;2.03;;;1.48;;
65202;SDS011;51788;45.124;38.966;2024-01-15T01:34:33;2.85;;;1.45;;
65202;SDS011;51788;45.124;38.966;2024-01-15T01:37:08;3.80;;;1.65;;
65202;SDS011;51788;45.124;38.966;2024-01-15T01:39:53;1.50;;;1.50;;
65202;SDS011;51788;45.124;38.966;2024-01-15T01:42:19;2.13;;;1.45;;
65202;SDS011;51788;45.124;38.966;2024-01-15T01:45:04;2.72;;;1.70;;
65202;SDS011;51788;45.124;38.966;2024-01-15T01:47:31;2.35;;;1.40;;
65202;SDS011;51788;45.124;38.966;2024-01-15T01:49:57;3.92;;;1.95;;
65202;SDS011;51788;45.124;38.966;2024-01-15T01:52:23;5.00;;;1.80;;
65202;SDS011;51788;45.124;38.966;2024-01-15T01:54:49;6.55;;;2.55;;
65202;SDS011;51788;45.124;38.966;2024-01-15T01:57:17;8.50;;;3.17;;
65202;SDS011;51788;45.124;38.966;2024-01-15T01:59:43;2.00;;;1.90;;
65202;SDS011;51788;45.124;38.966;2024-01-15T02:02:11;4.65;;;2.47;;
65202;SDS011;51788;45.124;38.966;2024-01-15T02:04:37;3.33;;;1.88;;
65202;SDS011;51788;45.124;38.966;2024-01-15T02:07:03;3.05;;;2.45;;
65202;SDS011;51788;45.124;38.966;2024-01-15T02:09:29;2.15;;;1.70;;
65202;SDS011;51788;45.124;38.966;2024-01-15T02:11:57;4.03;;;2.40;;
65202;SDS011;51788;45.124;38.966;2024-01-15T02:14:23;4.28;;;2.10;;
65202;SDS011;51788;45.124;38.966;2024-01-15T02:16:49;4.15;;;2.22;;
65202;SDS011;51788;45.124;38.966;2024-01-15T02:19:15;2.75;;;2.00;;
65202;SDS011;51788;45.124;38.966;2024-01-15T02:21:42;8.80;;;2.17;;
65202;SDS011;51788;45.124;38.966;2024-01-15T02:24:08;2.97;;;2.05;;
65202;SDS011;51788;45.124;38.966;2024-01-15T02:26:35;3.50;;;1.58;;
65202;SDS011;51788;45.124;38.966;2024-01-15T02:29:02;4.15;;;2.33;;
65202;SDS011;51788;45.124;38.966;2024-01-15T02:31:29;2.40;;;2.20;;
65202;SDS011;51788;45.124;38.966;2024-01-15T02:33:55;3.38;;;2.00;;
65202;SDS011;51788;45.124;38.966;2024-01-15T02:36:39;1.40;;;1.40;;
65202;SDS011;51788;45.124;38.966;2024-01-15T02:39:05;5.57;;;2.08;;
65202;SDS011;51788;45.124;38.966;2024-01-15T02:41:31;2.38;;;1.95;;
65202;SDS011;51788;45.124;38.966;2024-01-15T02:43:57;1.58;;;1.55;;
65202;SDS011;51788;45.124;38.966;2024-01-15T02:46:23;2.65;;;1.77;;
65202;SDS011;51788;45.124;38.966;2024-01-15T02:48:49;3.05;;;1.88;;
65202;SDS011;51788;45.124;38.966;2024-01-15T02:51:15;2.15;;;1.65;;
65202;SDS011;51788;45.124;38.966;2024-01-15T02:53:41;1.85;;;1.75;;
65202;SDS011;51788;45.124;38.966;2024-01-15T02:56:07;4.40;;;2.00;;
65202;SDS011;51788;45.124;38.966;2024-01-15T02:58:35;3.05;;;1.73;;
65202;SDS011;51788;45.124;38.966;2024-01-15T03:01:01;2.42;;;2.00;;
65202;SDS011;51788;45.124;38.966;2024-01-15T03:03:27;2.80;;;1.75;;
65202;SDS011;51788;45.124;38.966;2024-01-15T03:05:53;2.60;;;1.80;;
65202;SDS011;51788;45.124;38.966;2024-01-15T03:08:19;2.65;;;2.25;;
65202;SDS011;51788;45.124;38.966;2024-01-15T03:11:03;2.40;;;2.20;;
65202;SDS011;51788;45.124;38.966;2024-01-15T03:13:29;1.77;;;1.67;;
65202;SDS011;51788;45.124;38.966;2024-01-15T03:18:40;4.25;;;1.92;;
65202;SDS011;51788;45.124;38.966;2024-01-15T03:21:06;1.83;;;1.73;;
65202;SDS011;51788;45.124;38.966;2024-01-15T03:23:32;2.42;;;2.22;;
65202;SDS011;51788;45.124;38.966;2024-01-15T03:25:57;2.55;;;2.30;;
65202;SDS011;51788;45.124;38.966;2024-01-15T03:28:23;2.08;;;1.98;;
65202;SDS011;51788;45.124;38.966;2024-01-15T03:30:49;4.57;;;2.35;;
65202;SDS011;51788;45.124;38.966;2024-01-15T03:33:15;2.65;;;2.17;;
65202;SDS011;51788;45.124;38.966;2024-01-15T03:35:41;2.97;;;2.53;;
65202;SDS011;51788;45.124;38.966;2024-01-15T03:38:07;3.05;;;2.85;;
65202;SDS011;51788;45.124;38.966;2024-01-15T03:40:33;3.97;;;2.60;;
65202;SDS011;51788;45.124;38.966;2024-01-15T03:42:59;2.42;;;2.22;;
65202;SDS011;51788;45.124;38.966;2024-01-15T03:45:25;2.35;;;2.20;;
65202;SDS011;51788;45.124;38.966;2024-01-15T03:47:51;2.38;;;2.10;;
65202;SDS011;51788;45.124;38.966;2024-01-15T03:50:17;2.55;;;2.35;;
65202;SDS011;51788;45.124;38.966;2024-01-15T03:52:43;2.78;;;2.33;;
65202;SDS011;51788;45.124;38.966;2024-01-15T03:55:09;6.28;;;2.40;;
65202;SDS011;51788;45.124;38.966;2024-01-15T03:57:54;4.20;;;2.75;;
65202;SDS011;51788;45.124;38.966;2024-01-15T04:00:20;3.03;;;2.72;;
65202;SDS011;51788;45.124;38.966;2024-01-15T04:02:46;4.30;;;2.70;;
65202;SDS011;51788;45.124;38.966;2024-01-15T04:05:12;2.25;;;2.10;;
65202;SDS011;51788;45.124;38.966;2024-01-15T04:07:38;3.90;;;3.00;;
65202;SDS011;51788;45.124;38.966;2024-01-15T04:10:04;2.20;;;2.00;;
65202;SDS011;51788;45.124;38.966;2024-01-15T04:12:50;2.97;;;2.78;;
65202;SDS011;51788;45.124;38.966;2024-01-15T04:15:15;3.42;;;2.50;;
65202;SDS011;51788;45.124;38.966;2024-01-15T04:17:41;3.20;;;2.58;;
65202;SDS011;51788;45.124;38.966;2024-01-15T04:20:07;3.80;;;2.80;;
65202;SDS011;51788;45.124;38.966;2024-01-15T04:22:34;2.60;;;2.40;;
65202;SDS011;51788;45.124;38.966;2024-01-15T04:25:01;6.28;;;2.05;;
65202;SDS011;51788;45.124;38.966;2024-01-15T04:27:27;10.52;;;3.30;;
65202;SDS011;51788;45.124;38.966;2024-01-15T04:29:53;2.08;;;1.98;;
65202;SDS011;51788;45.124;38.966;2024-01-15T04:32:19;3.25;;;2.95;;
65202;SDS011;51788;45.124;38.966;2024-01-15T04:34:45;3.60;;;2.95;;
65202;SDS011;51788;45.124;38.966;2024-01-15T04:37:11;3.03;;;2.22;;
65202;SDS011;51788;45.124;38.966;2024-01-15T04:39:39;2.92;;;2.70;;
65202;SDS011;51788;45.124;38.966;2024-01-15T04:42:23;2.25;;;2.05;;
65202;SDS011;51788;45.124;38.966;2024-01-15T04:44:49;3.38;;;2.38;;
65202;SDS011;51788;45.124;38.966;2024-01-15T04:47:15;5.28;;;3.00;;
65202;SDS011;51788;45.124;38.966;2024-01-15T04:49:42;5.03;;;3.03;;
65202;SDS011;51788;45.124;38.966;2024-01-15T04:52:08;1.88;;;1.77;;
65202;SDS011;51788;45.124;38.966;2024-01-15T04:54:35;3.28;;;2.58;;
65202;SDS011;51788;45.124;38.966;2024-01-15T04:57:20;3.50;;;3.20;;
65202;SDS011;51788;45.124;38.966;2024-01-15T05:00:04;7.00;;;3.15;;
65202;SDS011;51788;45.124;38.966;2024-01-15T05:02:31;5.00;;;3.00;;
65202;SDS011;51788;45.124;38.966;2024-01-15T05:07:41;3.80;;;2.67;;
65202;SDS011;51788;45.124;38.966;2024-01-15T05:10:07;6.45;;;3.33;;
65202;SDS011;51788;45.124;38.966;2024-01-15T05:12:33;3.17;;;2.88;;
65202;SDS011;51788;45.124;38.966;2024-01-15T05:14:59;5.10;;;3.35;;
65202;SDS011;51788;45.124;38.966;2024-01-15T05:17:25;5.20;;;3.45;;
65202;SDS011;51788;45.124;38.966;2024-01-15T05:19:51;9.93;;;4.93;;
65202;SDS011;51788;45.124;38.966;2024-01-15T05:22:17;3.95;;;3.65;;
65202;SDS011;51788;45.124;38.966;2024-01-15T05:24:43;4.55;;;3.90;;
65202;SDS011;51788;45.124;38.966;2024-01-15T05:27:09;7.63;;;4.28;;
65202;SDS011;51788;45.124;38.966;2024-01-15T05:29:35;3.85;;;3.30;;
65202;SDS011;51788;45.124;38.966;2024-01-15T05:32:00;4.85;;;4.35;;
65202;SDS011;51788;45.124;38.966;2024-01-15T05:34:27;4.53;;;4.13;;
65202;SDS011;51788;45.124;38.966;2024-01-15T05:36:53;8.85;;;4.18;;
65202;SDS011;51788;45.124;38.966;2024-01-15T05:39:19;6.80;;;4.38;;
65202;SDS011;51788;45.124;38.966;2024-01-15T05:41:45;6.85;;;4.80;;
65202;SDS011;51788;45.124;38.966;2024-01-15T05:44:10;6.78;;;4.88;;
65202;SDS011;51788;45.124;38.966;2024-01-15T05:46:36;10.40;;;4.28;;
65202;SDS011;51788;45.124;38.966;2024-01-15T05:49:02;6.15;;;4.25;;
65202;SDS011;51788;45.124;38.966;2024-01-15T05:51:47;4.07;;;3.72;;
65202;SDS011;51788;45.124;38.966;2024-01-15T05:54:12;5.70;;;4.20;;
65202;SDS011;51788;45.124;38.966;2024-01-15T05:59:23;10.38;;;4.78;;
65202;SDS011;51788;45.124;38.966;2024-01-15T06:01:49;8.88;;;5.60;;
65202;SDS011;51788;45.124;38.966;2024-01-15T06:04:15;7.10;;;4.68;;
65202;SDS011;51788;45.124;38.966;2024-01-15T06:07:00;9.43;;;4.80;;
65202;SDS011;51788;45.124;38.966;2024-01-15T06:09:26;7.65;;;4.80;;
65202;SDS011;51788;45.124;38.966;2024-01-15T06:11:53;6.07;;;5.35;;
65202;SDS011;51788;45.124;38.966;2024-01-15T06:14:37;6.63;;;4.60;;
65202;SDS011;51788;45.124;38.966;2024-01-15T06:17:03;7.80;;;5.03;;
65202;SDS011;51788;45.124;38.966;2024-01-15T06:19:29;13.57;;;5.07;;
65202;SDS011;51788;45.124;38.966;2024-01-15T06:21:55;5.40;;;4.88;;
65202;SDS011;51788;45.124;38.966;2024-01-15T06:24:21;8.15;;;4.97;;
65202;SDS011;51788;45.124;38.966;2024-01-15T06:26:47;10.30;;;5.88;;
65202;SDS011;51788;45.124;38.966;2024-01-15T06:29:13;6.07;;;5.32;;
65202;SDS011;51788;45.124;38.966;2024-01-15T06:31:39;5.38;;;4.88;;
65202;SDS011;51788;45.124;38.966;2024-01-15T06:34:05;5.55;;;5.10;;
65202;SDS011;51788;45.124;38.966;2024-01-15T06:36:31;6.53;;;5.93;;
65202;SDS011;51788;45.124;38.966;2024-01-15T06:38:57;9.98;;;7.10;;
65202;SDS011;51788;45.124;38.966;2024-01-15T06:41:23;15.63;;;6.30;;
65202;SDS011;51788;45.124;38.966;2024-01-15T06:43:50;7.97;;;6.28;;
65202;SDS011;51788;45.124;38.966;2024-01-15T06:46:22;4.50;;;3.78;;
65202;SDS011;51788;45.124;38.966;2024-01-15T06:48:49;7.95;;;7.07;;
65202;SDS011;51788;45.124;38.966;2024-01-15T06:54:18;6.25;;;3.83;;
65202;SDS011;51788;45.124;38.966;2024-01-15T06:56:44;5.53;;;4.95;;
65202;SDS011;51788;45.124;38.966;2024-01-15T06:59:10;14.73;;;6.22;;
65202;SDS011;51788;45.124;38.966;2024-01-15T07:01:54;6.22;;;5.45;;
65202;SDS011;51788;45.124;38.966;2024-01-15T07:04:20;7.03;;;5.55;;
65202;SDS011;51788;45.124;38.966;2024-01-15T07:06:46;5.70;;;5.03;;
65202;SDS011;51788;45.124;38.966;2024-01-15T07:11:59;4.88;;;4.47;;
65202;SDS011;51788;45.124;38.966;2024-01-15T07:14:24;3.42;;;3.17;;
65202;SDS011;51788;45.124;38.966;2024-01-15T07:16:51;7.03;;;5.10;;
65202;SDS011;51788;45.124;38.966;2024-01-15T07:19:17;5.60;;;4.70;;
65202;SDS011;51788;45.124;38.966;2024-01-15T07:21:43;5.20;;;3.95;;
65202;SDS011;51788;45.124;38.966;2024-01-15T07:24:09;4.18;;;3.80;;
65202;SDS011;51788;45.124;38.966;2024-01-15T07:26:35;5.32;;;4.15;;
65202;SDS011;51788;45.124;38.966;2024-01-15T07:29:01;4.50;;;4.10;;
65202;SDS011;51788;45.124;38.966;2024-01-15T07:31:49;3.67;;;3.30;;
65202;SDS011;51788;45.124;38.966;2024-01-15T07:34:34;4.70;;;3.50;;
65202;SDS011;51788;45.124;38.966;2024-01-15T07:37:00;2.75;;;2.30;;
65202;SDS011;51788;45.124;38.966;2024-01-15T07:39:26;3.35;;;3.05;;
65202;SDS011;51788;45.124;38.966;2024-01-15T07:41:54;3.60;;;3.40;;
65202;SDS011;51788;45.124;38.966;2024-01-15T07:44:20;3.30;;;2.75;;
65202;SDS011;51788;45.124;38.966;2024-01-15T07:46:46;4.47;;;2.85;;
65202;SDS011;51788;45.124;38.966;2024-01-15T07:49:13;3.58;;;3.38;;
65202;SDS011;51788;45.124;38.966;2024-01-15T07:51:39;4.57;;;3.78;;
65202;SDS011;51788;45.124;38.966;2024-01-15T07:54:09;3.95;;;3.58;;
65202;SDS011;51788;45.124;38.966;2024-01-15T07:56:52;3.90;;;3.60;;
65202;SDS011;51788;45.124;38.966;2024-01-15T07:59:25;4.55;;;4.07;;
65202;SDS011;51788;45.124;38.966;2024-01-15T08:01:52;5.20;;;3.45;;
65202;SDS011;51788;45.124;38.966;2024-01-15T08:04:19;3.75;;;3.45;;
65202;SDS011;51788;45.124;38.966;2024-01-15T08:07:04;5.88;;;4.97;;
65202;SDS011;51788;45.124;38.966;2024-01-15T08:09:32;5.55;;;4.40;;
65202;SDS011;51788;45.124;38.966;2024-01-15T08:14:42;4.45;;;4.07;;
65202;SDS011;51788;45.124;38.966;2024-01-15T08:17:08;5.30;;;4.80;;
65202;SDS011;51788;45.124;38.966;2024-01-15T08:19:34;5.57;;;5.05;;
65202;SDS011;51788;45.124;38.966;2024-01-15T08:22:00;7.00;;;5.20;;
65202;SDS011;51788;45.124;38.966;2024-01-15T08:24:26;7.00;;;5.78;;
65202;SDS011;51788;45.124;38.966;2024-01-15T08:26:52;6.07;;;5.43;;
65202;SDS011;51788;45.124;38.966;2024-01-15T08:29:18;6.00;;;4.75;;
65202;SDS011;51788;45.124;38.966;2024-01-15T08:31:46;6.43;;;5.05;;
65202;SDS011;51788;45.124;38.966;2024-01-15T08:37:17;6.35;;;5.78;;
65202;SDS011;51788;45.124;38.966;2024-01-15T08:39:44;11.80;;;6.63;;
65202;SDS011;51788;45.124;38.966;2024-01-15T08:42:10;7.60;;;5.88;;
65202;SDS011;51788;45.124;38.966;2024-01-15T08:44:36;6.82;;;6.20;;
65202;SDS011;51788;45.124;38.966;2024-01-15T08:47:04;9.50;;;8.10;;
65202;SDS011;51788;45.124;38.966;2024-01-15T08:49:30;10.10;;;6.50;;
65202;SDS011;51788;45.124;38.966;2024-01-15T08:52:15;15.45;;;7.70;;
65202;SDS011;51788;45.124;38.966;2024-01-15T08:54:41;17.05;;;7.13;;
65202;SDS011;51788;45.124;38.966;2024-01-15T08:57:07;8.98;;;7.20;;
65202;SDS011;51788;45.124;38.966;2024-01-15T08:59:51;6.53;;;5.85;;
65202;SDS011;51788;45.124;38.966;2024-01-15T09:02:17;8.98;;;6.05;;
65202;SDS011;51788;45.124;38.966;2024-01-15T09:04:43;5.78;;;5.25;;
65202;SDS011;51788;45.124;38.966;2024-01-15T09:07:09;7.95;;;5.82;;
65202;SDS011;51788;45.124;38.966;2024-01-15T09:09:35;12.40;;;7.80;;
65202;SDS011;51788;45.124;38.966;2024-01-15T09:12:02;8.75;;;7.25;;
65202;SDS011;51788;45.124;38.966;2024-01-15T09:14:28;9.48;;;7.25;;
65202;SDS011;51788;45.124;38.966;2024-01-15T09:16:54;15.07;;;8.00;;
65202;SDS011;51788;45.124;38.966;2024-01-15T09:19:21;15.85;;;8.52;;
65202;SDS011;51788;45.124;38.966;2024-01-15T09:21:47;11.10;;;8.18;;
65202;SDS011;51788;45.124;38.966;2024-01-15T09:24:13;10.35;;;7.85;;
65202;SDS011;51788;45.124;38.966;2024-01-15T09:26:39;6.97;;;6.28;;
65202;SDS011;51788;45.124;38.966;2024-01-15T09:29:05;15.32;;;8.45;;
65202;SDS011;51788;45.124;38.966;2024-01-15T09:31:31;12.43;;;8.52;;
65202;SDS011;51788;45.124;38.966;2024-01-15T09:33:57;9.90;;;6.60;;
65202;SDS011;51788;45.124;38.966;2024-01-15T09:36:25;7.88;;;3.85;;
65202;SDS011;51788;45.124;38.966;2024-01-15T09:39:10;5.20;;;4.72;;
65202;SDS011;51788;45.124;38.966;2024-01-15T09:41:36;17.38;;;7.35;;
65202;SDS011;51788;45.124;38.966;2024-01-15T09:44:03;10.00;;;6.72;;
65202;SDS011;51788;45.124;38.966;2024-01-15T09:46:30;12.88;;;6.28;;
65202;SDS011;51788;45.124;38.966;2024-01-15T09:48:57;13.98;;;7.72;;
65202;SDS011;51788;45.124;38.966;2024-01-15T09:51:24;6.03;;;5.47;;
65202;SDS011;51788;45.124;38.966;2024-01-15T09:53:50;8.25;;;5.20;;
65202;SDS011;51788;45.124;38.966;2024-01-15T09:56:17;7.25;;;5.45;;
65202;SDS011;51788;45.124;38.966;2024-01-15T09:58:43;15.43;;;7.57;;
65202;SDS011;51788;45.124;38.966;2024-01-15T10:01:10;7.18;;;5.88;;
65202;SDS011;51788;45.124;38.966;2024-01-15T10:03:37;7.22;;;5.82;;
65202;SDS011;51788;45.124;38.966;2024-01-15T10:06:05;6.43;;;4.93;;
65202;SDS011;51788;45.124;38.966;2024-01-15T10:08:33;12.35;;;7.95;;
65202;SDS011;51788;45.124;38.966;2024-01-15T10:11:20;10.10;;;5.43;;
65202;SDS011;51788;45.124;38.966;2024-01-15T10:13:47;10.23;;;6.75;;
65202;SDS011;51788;45.124;38.966;2024-01-15T10:16:17;9.88;;;7.07;;
65202;SDS011;51788;45.124;38.966;2024-01-15T10:18:43;9.15;;;5.10;;
65202;SDS011;51788;45.124;38.966;2024-01-15T10:21:10;11.07;;;6.72;;
65202;SDS011;51788;45.124;38.966;2024-01-15T10:23:36;6.43;;;5.22;;
65202;SDS011;51788;45.124;38.966;2024-01-15T10:26:03;7.35;;;6.00;;
65202;SDS011;51788;45.124;38.966;2024-01-15T10:28:50;7.80;;;5.10;;
65202;SDS011;51788;45.124;38.966;2024-01-15T10:31:17;7.97;;;5.72;;
65202;SDS011;51788;45.124;38.966;2024-01-15T10:33:45;5.30;;;4.47;;
65202;SDS011;51788;45.124;38.966;2024-01-15T10:36:10;8.50;;;6.47;;
65202;SDS011;51788;45.124;38.966;2024-01-15T10:38:56;13.05;;;5.53;;
65202;SDS011;51788;45.124;38.966;2024-01-15T10:41:23;5.82;;;4.75;;
65202;SDS011;51788;45.124;38.966;2024-01-15T10:43:49;7.75;;;5.57;;
65202;SDS011;51788;45.124;38.966;2024-01-15T10:46:15;7.72;;;4.82;;
65202;SDS011;51788;45.124;38.966;2024-01-15T10:48:41;5.07;;;4.57;;
65202;SDS011;51788;45.124;38.966;2024-01-15T10:51:07;5.00;;;4.60;;
65202;SDS011;51788;45.124;38.966;2024-01-15T10:53:39;5.22;;;4.72;;
65202;SDS011;51788;45.124;38.966;2024-01-15T10:56:07;3.63;;;3.33;;
65202;SDS011;51788;45.124;38.966;2024-01-15T10:58:37;5.68;;;4.97;;
65202;SDS011;51788;45.124;38.966;2024-01-15T11:01:05;8.98;;;5.65;;
65202;SDS011;51788;45.124;38.966;2024-01-15T11:03:32;4.95;;;4.07;;
65202;SDS011;51788;45.124;38.966;2024-01-15T11:05:59;5.45;;;4.82;;
65202;SDS011;51788;45.124;38.966;2024-01-15T11:08:25;8.55;;;4.75;;
65202;SDS011;51788;45.124;38.966;2024-01-15T11:10:51;3.50;;;2.90;;
65202;SDS011;51788;45.124;38.966;2024-01-15T11:16:17;5.28;;;4.55;;
65202;SDS011;51788;45.124;38.966;2024-01-15T11:19:01;6.03;;;4.90;;
65202;SDS011;51788;45.124;38.966;2024-01-15T11:21:28;12.15;;;4.75;;
65202;SDS011;51788;45.124;38.966;2024-01-15T11:23:58;10.70;;;4.63;;
65202;SDS011;51788;45.124;38.966;2024-01-15T11:26:31;13.07;;;4.95;;
65202;SDS011;51788;45.124;38.966;2024-01-15T11:29:10;6.82;;;4.45;;
65202;SDS011;51788;45.124;38.966;2024-01-15T11:34:20;7.90;;;4.57;;
65202;SDS011;51788;45.124;38.966;2024-01-15T11:39:40;6.15;;;4.80;;
65202;SDS011;51788;45.124;38.966;2024-01-15T11:42:05;7.40;;;5.38;;
65202;SDS011;51788;45.124;38.966;2024-01-15T11:44:50;4.25;;;3.58;;
65202;SDS011;51788;45.124;38.966;2024-01-15T11:50:21;4.40;;;4.00;;
65202;SDS011;51788;45.124;38.966;2024-01-15T11:53:08;6.25;;;3.92;;
65202;SDS011;51788;45.124;38.966;2024-01-15T11:55:57;11.88;;;5.57;;
65202;SDS011;51788;45.124;38.966;2024-01-15T11:58:24;5.57;;;3.85;;
65202;SDS011;51788;45.124;38.966;2024-01-15T12:00:51;8.52;;;4.70;;
65202;SDS011;51788;45.124;38.966;2024-01-15T12:06:05;6.63;;;4.72;;
65202;SDS011;51788;45.124;38.966;2024-01-15T12:08:32;13.23;;;3.85;;
65202;SDS011;51788;45.124;38.966;2024-01-15T12:13:44;10.55;;;5.22;;
65202;SDS011;51788;45.124;38.966;2024-01-15T12:16:10;15.20;;;4.72;;
65202;SDS011;51788;45.124;38.966;2024-01-15T12:18:37;4.30;;;3.80;;
65202;SDS011;51788;45.124;38.966;2024-01-15T12:21:03;6.30;;;5.10;;
65202;SDS011;51788;45.124;38.966;2024-01-15T12:23:29;8.93;;;5.30;;
65202;SDS011;51788;45.124;38.966;2024-01-15T12:25:55;4.80;;;4.00;;
65202;SDS011;51788;45.124;38.966;2024-01-15T12:28:40;8.52;;;5.18;;
65202;SDS011;51788;45.124;38.966;2024-01-15T12:31:06;3.25;;;2.95;;
65202;SDS011;51788;45.124;38.966;2024-01-15T12:33:33;5.60;;;4.28;;
65202;SDS011;51788;45.124;38.966;2024-01-15T12:35:59;5.10;;;3.83;;
65202;SDS011;51788;45.124;38.966;2024-01-15T12:38:25;5.90;;;4.25;;
65202;SDS011;51788;45.124;38.966;2024-01-15T12:40:51;15.10;;;4.32;;
65202;SDS011;51788;45.124;38.966;2024-01-15T12:43:18;5.57;;;3.35;;
65202;SDS011;51788;45.124;38.966;2024-01-15T12:45:45;4.00;;;3.58;;
65202;SDS011;51788;45.124;38.966;2024-01-15T12:48:11;5.15;;;4.00;;
65202;SDS011;51788;45.124;38.966;2024-01-15T12:50:38;6.40;;;4.18;;
65202;SDS011;51788;45.124;38.966;2024-01-15T12:53:04;3.75;;;3.40;;
65202;SDS011;51788;45.124;38.966;2024-01-15T12:55:30;5.75;;;4.15;;
65202;SDS011;51788;45.124;38.966;2024-01-15T12:57:56;15.55;;;6.88;;
65202;SDS011;51788;45.124;38.966;2024-01-15T13:00:41;5.00;;;3.55;;
65202;SDS011;51788;45.124;38.966;2024-01-15T13:03:07;4.82;;;3.95;;
65202;SDS011;51788;45.124;38.966;2024-01-15T13:05:51;3.90;;;3.50;;
65202;SDS011;51788;45.124;38.966;2024-01-15T13:08:18;3.92;;;3.40;;
65202;SDS011;51788;45.124;38.966;2024-01-15T13:10:44;3.05;;;2.80;;
65202;SDS011;51788;45.124;38.966;2024-01-15T13:13:09;3.65;;;3.35;;
65202;SDS011;51788;45.124;38.966;2024-01-15T13:15:35;4.72;;;3.38;;
65202;SDS011;51788;45.124;38.966;2024-01-15T13:18:02;5.03;;;3.47;;
65202;SDS011;51788;45.124;38.966;2024-01-15T13:20:28;5.38;;;4.10;;
65202;SDS011;51788;45.124;38.966;2024-01-15T13:22:54;2.33;;;2.17;;
65202;SDS011;51788;45.124;38.966;2024-01-15T13:25:20;4.22;;;3.83;;
65202;SDS011;51788;45.124;38.966;2024-01-15T13:27:46;9.50;;;4.00;;
65202;SDS011;51788;45.124;38.966;2024-01-15T13:30:30;4.13;;;3.83;;
65202;SDS011;51788;45.124;38.966;2024-01-15T13:32:56;3.70;;;3.40;;
65202;SDS011;51788;45.124;38.966;2024-01-15T13:35:23;3.70;;;3.45;;
65202;SDS011;51788;45.124;38.966;2024-01-15T13:37:49;5.30;;;3.28;;
65202;SDS011;51788;45.124;38.966;2024-01-15T13:40:15;4.18;;;3.17;;
65202;SDS011;51788;45.124;38.966;2024-01-15T13:42:45;5.00;;;2.78;;
65202;SDS011;51788;45.124;38.966;2024-01-15T13:45:12;4.03;;;3.20;;
65202;SDS011;51788;45.124;38.966;2024-01-15T13:47:42;4.95;;;3.42;;
65202;SDS011;51788;45.124;38.966;2024-01-15T13:50:09;4.18;;;3.33;;
65202;SDS011;51788;45.124;38.966;2024-01-15T13:52:35;3.47;;;2.95;;
65202;SDS011;51788;45.124;38.966;2024-01-15T13:55:01;9.10;;;3.60;;
65202;SDS011;51788;45.124;38.966;2024-01-15T13:57:27;4.00;;;3.67;;
65202;SDS011;51788;45.124;38.966;2024-01-15T13:59:53;6.90;;;3.35;;
65202;SDS011;51788;45.124;38.966;2024-01-15T14:02:20;3.22;;;2.92;;
65202;SDS011;51788;45.124;38.966;2024-01-15T14:04:46;3.05;;;2.85;;
65202;SDS011;51788;45.124;38.966;2024-01-15T14:07:13;3.60;;;3.30;;
65202;SDS011;51788;45.124;38.966;2024-01-15T14:09:39;8.45;;;3.13;;
65202;SDS011;51788;45.124;38.966;2024-01-15T14:12:05;8.50;;;3.75;;
65202;SDS011;51788;45.124;38.966;2024-01-15T14:14:31;5.07;;;3.15;;
65202;SDS011;51788;45.124;38.966;2024-01-15T14:16:58;3.58;;;3.33;;
65202;SDS011;51788;45.124;38.966;2024-01-15T14:22:08;6.30;;;3.85;;
65202;SDS011;51788;45.124;38.966;2024-01-15T14:24:34;3.47;;;3.15;;
65202;SDS011;51788;45.124;38.966;2024-01-15T14:27:00;4.93;;;3.75;;
65202;SDS011;51788;45.124;38.966;2024-01-15T14:29:26;4.55;;;4.03;;
65202;SDS011;51788;45.124;38.966;2024-01-15T14:31:52;7.88;;;5.70;;
65202;SDS011;51788;45.124;38.966;2024-01-15T14:34:18;10.18;;;6.32;;
65202;SDS011;51788;45.124;38.966;2024-01-15T14:36:47;8.10;;;6.15;;
65202;SDS011;51788;45.124;38.966;2024-01-15T14:39:14;6.43;;;5.53;;
65202;SDS011;51788;45.124;38.966;2024-01-15T14:41:40;11.60;;;4.53;;
65202;SDS011;51788;45.124;38.966;2024-01-15T14:44:07;5.20;;;4.40;;
65202;SDS011;51788;45.124;38.966;2024-01-15T14:46:33;7.00;;;4.63;;
65202;SDS011;51788;45.124;38.966;2024-01-15T14:48:59;4.45;;;4.05;;
65202;SDS011;51788;45.124;38.966;2024-01-15T14:51:25;8.48;;;4.30;;
65202;SDS011;51788;45.124;38.966;2024-01-15T14:53:51;6.25;;;4.60;;
65202;SDS011;51788;45.124;38.966;2024-01-15T14:56:17;9.18;;;3.85;;
65202;SDS011;51788;45.124;38.966;2024-01-15T14:58:43;9.98;;;6.78;;
65202;SDS011;51788;45.124;38.966;2024-01-15T15:01:09;13.80;;;6.25;;
65202;SDS011;51788;45.124;38.966;2024-01-15T15:03:35;9.10;;;5.35;;
65202;SDS011;51788;45.124;38.966;2024-01-15T15:06:01;4.95;;;4.32;;
65202;SDS011;51788;45.124;38.966;2024-01-15T15:08:28;5.75;;;4.82;;
65202;SDS011;51788;45.124;38.966;2024-01-15T15:11:12;4.15;;;3.53;;
65202;SDS011;51788;45.124;38.966;2024-01-15T15:13:39;5.75;;;3.72;;
65202;SDS011;51788;45.124;38.966;2024-01-15T15:16:05;6.50;;;4.07;;
65202;SDS011;51788;45.124;38.966;2024-01-15T15:18:31;6.60;;;3.40;;
65202;SDS011;51788;45.124;38.966;2024-01-15T15:20:57;5.63;;;4.35;;
65202;SDS011;51788;45.124;38.966;2024-01-15T15:23:23;6.45;;;4.10;;
65202;SDS011;51788;45.124;38.966;2024-01-15T15:25:49;5.72;;;3.72;;